Time;durP1;ratioP1;P1;durP2;ratioP2;P2;SDS_P1;SDS_P2;PMS_P1;PMS_P2;Temp;Humidity;BMP_temperature;BMP_pressure;BME280_temperature;BME280_humidity;BME280_pressure;Samples;Min_cycle;Max_cycle;Signal;HPM_P1;HPM_P2
2021/04/06 00:00:16;;;;;;;14.18;3.70;;;;;;;-1.46;76.80;99031.75;5013874;28;20022;-62
2021/04/06 00:02:44;;;;;;;9.43;3.38;;;;;;;-1.30;74.90;99021.13;5013534;28;20038;-62
2021/04/06 00:05:10;;;;;;;18.55;3.72;;;;;;;-1.37;74.72;99021.03;4981059;28;20133;-62
2021/04/06 00:07:36;;;;;;;16.65;3.72;;;;;;;-1.26;74.30;99014.56;5013789;28;20014;-62
2021/04/06 00:10:07;;;;;;;11.57;3.47;;;;;;;-1.22;73.06;99010.59;5014185;28;20107;-62
2021/04/06 00:12:33;;;;;;;;;;;;;;;-1.17;73.20;99016.16;5015259;28;20119;-62
2021/04/06 00:14:58;;;;;;;14.57;3.80;;;;;;;-1.22;73.36;99001.88;5013539;28;19982;-62
2021/04/06 00:17:24;;;;;;;9.75;2.80;;;;;;;-1.21;73.25;99004.34;4996705;28;20042;-62
2021/04/06 00:19:49;;;;;;;17.25;3.70;;;;;;;-1.21;73.64;98999.09;4997024;28;20036;-61
2021/04/06 00:22:16;;;;;;;12.25;4.00;;;;;;;-1.30;73.62;99010.63;5012845;28;20053;-61
2021/04/06 00:24:44;;;;;;;11.07;3.72;;;;;;;-1.32;74.12;99004.75;5013367;28;20140;-62
2021/04/06 00:27:16;;;;;;;11.25;3.53;;;;;;;-1.25;74.31;99013.56;5012888;28;20129;-62
2021/04/06 00:29:43;;;;;;;9.25;3.00;;;;;;;-1.27;74.61;99005.03;5014441;28;20448;-62
2021/04/06 00:32:08;;;;;;;11.55;3.40;;;;;;;-1.26;76.52;99014.56;4996349;28;20144;-62
2021/04/06 00:34:34;;;;;;;8.45;3.22;;;;;;;-1.32;77.84;99013.44;5014223;28;20469;-62
2021/04/06 00:37:13;;;;;;;10.68;3.40;;;;;;;-1.25;77.12;99003.03;5012590;28;20038;-62
2021/04/06 00:39:38;;;;;;;6.30;2.97;;;;;;;-1.20;77.36;98997.25;5013070;28;20033;-62
2021/04/06 00:42:15;;;;;;;7.45;2.83;;;;;;;-1.17;77.08;98995.13;5012881;28;20053;-61
2021/04/06 00:45:05;;;;;;;15.10;2.92;;;;;;;-1.11;76.16;98989.16;5012987;28;20369;-61
2021/04/06 00:47:30;;;;;;;11.70;3.15;;;;;;;-1.01;75.27;99006.53;5001223;28;20046;-62
2021/04/06 00:50:01;;;;;;;12.07;3.70;;;;;;;-0.92;74.50;99005.50;5014082;28;20045;-62
2021/04/06 00:52:26;;;;;;;11.38;3.10;;;;;;;-0.87;74.16;99011.88;5012669;28;20352;-62
2021/04/06 00:54:53;;;;;;;14.30;3.92;;;;;;;-0.97;75.24;99000.75;5012822;28;20484;-61
2021/04/06 00:57:18;;;;;;;6.03;2.42;;;;;;;-1.05;76.19;98998.16;5013854;28;20096;-62
2021/04/06 01:00:18;;;;;;;9.85;3.03;;;;;;;-0.97;75.65;98989.44;5014099;28;20400;-61
2021/04/06 01:03:03;;;;;;;7.47;3.33;;;;;;;-0.95;75.21;98992.69;5012479;28;20133;-61
2021/04/06 01:05:30;;;;;;;9.43;3.65;;;;;;;-1.01;74.98;98998.66;5013644;28;20139;-61
2021/04/06 01:07:56;;;;;;;9.23;3.53;;;;;;;-0.95;74.61;98990.06;5014192;28;20080;-61
2021/04/06 01:10:23;;;;;;;8.43;2.90;;;;;;;-1.01;74.65;98996.03;5013103;28;20050;-61
2021/04/06 01:12:48;;;;;;;10.23;3.17;;;;;;;-1.08;75.05;98994.06;5012675;28;20030;-61
2021/04/06 01:15:14;;;;;;;8.88;2.90;;;;;;;-1.10;75.17;99008.38;5013444;28;20464;-61
2021/04/06 01:17:40;;;;;;;10.05;3.53;;;;;;;-1.10;75.03;99000.50;5012654;28;20033;-61
2021/04/06 01:20:08;;;;;;;9.20;3.20;;;;;;;-1.15;74.97;99008.94;5011857;28;20033;-61
2021/04/06 01:22:33;;;;;;;13.52;3.33;;;;;;;-0.98;74.08;99014.91;5013163;28;20033;-61
2021/04/06 01:24:58;;;;;;;12.98;2.90;;;;;;;-0.98;74.12;99020.16;5013671;28;20338;-61
2021/04/06 01:27:24;;;;;;;8.48;3.38;;;;;;;-0.92;74.03;99014.22;5013130;28;20408;-61
2021/04/06 01:29:50;;;;;;;6.68;2.83;;;;;;;-0.82;73.25;99011.38;5012199;28;20025;-61
2021/04/06 01:32:17;;;;;;;9.75;3.08;;;;;;;-0.81;73.21;99012.19;5011572;28;20049;-61
2021/04/06 01:34:43;;;;;;;9.98;2.88;;;;;;;-0.72;73.05;99017.22;5012123;28;20033;-61
2021/04/06 01:37:08;;;;;;;11.48;3.03;;;;;;;-0.74;73.27;99010.50;5012922;28;20042;-61
2021/04/06 01:39:33;;;;;;;9.10;2.70;;;;;;;-0.73;72.90;99012.94;5012182;28;20381;-61
2021/04/06 01:42:02;;;;;;;9.50;2.55;;;;;;;-0.68;73.35;99021.13;5011673;28;20413;-61
2021/04/06 01:44:27;;;;;;;8.32;2.80;;;;;;;-0.62;72.96;99016.16;5012197;28;20037;-61
2021/04/06 01:46:54;;;;;;;8.77;3.15;;;;;;;-0.63;73.20;99012.69;5012915;28;20038;-61
2021/04/06 01:49:19;;;;;;;10.73;3.30;;;;;;;-0.48;72.63;99012.75;5012117;28;20030;-61
2021/04/06 01:51:45;;;;;;;11.65;3.08;;;;;;;-0.46;72.59;99016.03;5011435;28;20337;-61
2021/04/06 01:54:12;;;;;;;7.78;2.85;;;;;;;-0.54;72.99;99016.09;5012939;28;20025;-61
2021/04/06 01:56:46;;;;;;;11.32;3.08;;;;;;;-0.46;72.92;99008.13;5012847;28;20037;-61
2021/04/06 01:59:16;;;;;;;12.18;3.13;;;;;;;-0.44;72.43;99012.22;5012142;28;20034;-61
2021/04/06 02:01:42;;;;;;;7.20;2.40;;;;;;;-0.40;72.17;99011.88;5012679;28;20038;-61
2021/04/06 02:04:08;;;;;;;10.55;3.22;;;;;;;-0.34;72.05;99008.53;5013046;28;20046;-61
2021/04/06 02:06:36;;;;;;;9.57;2.75;;;;;;;-0.36;72.14;99008.72;5012652;28;20034;-61
2021/04/06 02:09:02;;;;;;;9.35;3.22;;;;;;;-0.22;71.01;99005.31;5011866;28;20101;-61
2021/04/06 02:11:31;;;;;;;7.43;2.42;;;;;;;-0.18;71.09;99007.56;5012340;28;20052;-61
2021/04/06 02:14:08;;;;;;;12.65;2.85;;;;;;;-0.13;71.11;98994.69;5011887;28;20037;-61
2021/04/06 02:16:43;;;;;;;6.63;2.47;;;;;;;-0.06;70.48;99008.78;5012650;28;20121;-61
2021/04/06 02:19:09;;;;;;;12.32;3.03;;;;;;;-0.08;70.58;99010.78;5012961;28;20469;-61
2021/04/06 02:21:48;;;;;;;17.77;2.70;;;;;;;-0.02;70.15;99004.81;5012458;28;20038;-61
2021/04/06 02:24:35;;;;;;;6.13;2.60;;;;;;;-0.02;70.53;98999.53;5012970;28;20449;-62
2021/04/06 02:27:05;;;;;;;17.90;3.05;;;;;;;-0.02;70.53;98999.53;5012469;28;20038;-62
2021/04/06 02:29:35;;;;;;;11.63;3.20;;;;;;;0.03;70.57;99004.28;5011837;28;20064;-61
2021/04/06 02:32:00;;;;;;;11.57;2.85;;;;;;;-0.03;70.96;99000.50;5011191;28;20523;-61
2021/04/06 02:34:33;;;;;;;11.00;3.05;;;;;;;0.06;70.62;98999.44;4997497;28;20026;-62
2021/04/06 02:37:00;;;;;;;11.90;2.70;;;;;;;0.03;70.21;98997.19;5016437;28;20084;-62
2021/04/06 02:39:25;;;;;;;16.17;3.80;;;;;;;0.14;69.08;98999.34;5015841;28;20056;-62
2021/04/06 02:41:50;;;;;;;17.65;2.92;;;;;;;0.06;69.51;98996.81;5016357;28;20058;-61
2021/04/06 02:44:19;;;;;;;16.20;2.63;;;;;;;0.08;69.54;98994.00;5016328;28;20034;-61
2021/04/06 02:46:49;;;;;;;21.10;2.90;;;;;;;0.17;69.36;98988.44;5016194;28;20034;-61
2021/04/06 02:49:15;;;;;;;11.10;2.67;;;;;;;0.15;69.07;98987.81;5015578;28;20554;-61
2021/04/06 02:51:40;;;;;;;14.23;3.10;;;;;;;0.17;69.36;98983.16;5014732;28;20050;-61
2021/04/06 02:54:06;;;;;;;10.75;2.92;;;;;;;0.04;70.23;98988.25;5015354;28;20021;-62
2021/04/06 02:56:32;;;;;;;14.27;3.25;;;;;;;-0.07;70.42;98991.34;5014834;28;20038;-62
2021/04/06 02:59:15;;;;;;;11.35;3.00;;;;;;;-0.07;70.25;98999.25;5015227;28;20164;-62
2021/04/06 03:01:41;;;;;;;13.82;3.33;;;;;;;-0.07;70.44;98986.09;5014687;28;20069;-62
2021/04/06 03:04:23;;;;;;;10.52;2.28;;;;;;;0.00;70.27;98992.28;5016336;28;20026;-61
2021/04/06 03:06:52;;;;;;;11.85;2.55;;;;;;;-0.05;70.60;99003.34;5015849;28;20038;-61
2021/04/06 03:09:19;;;;;;;9.68;2.60;;;;;;;-0.15;71.47;98996.69;5014859;28;20053;-61
2021/04/06 03:11:45;;;;;;;18.00;3.20;;;;;;;-0.04;71.31;98991.00;5014318;28;20073;-61
2021/04/06 03:14:11;;;;;;;5.28;2.42;;;;;;;-0.07;71.25;98991.34;5016172;28;20030;-61
2021/04/06 03:16:37;;;;;;;10.80;2.97;;;;;;;-0.16;71.30;98993.22;5014493;28;20041;-62
2021/04/06 03:19:05;;;;;;;16.73;3.10;;;;;;;-0.15;71.45;98989.63;5016109;28;20046;-61
2021/04/06 03:21:31;;;;;;;11.70;2.70;;;;;;;-0.24;71.71;98983.59;5015680;28;20099;-62
2021/04/06 03:23:58;;;;;;;13.07;3.22;;;;;;;-0.13;71.08;98992.88;5015947;28;20022;-62
2021/04/06 03:26:23;;;;;;;19.52;3.00;;;;;;;-0.02;70.60;98983.72;5015561;28;20045;-61
2021/04/06 03:28:49;;;;;;;16.48;3.78;;;;;;;-0.21;71.98;98990.31;4998414;28;20401;-61
2021/04/06 03:31:18;;;;;;;11.57;2.92;;;;;;;-0.19;71.98;98979.63;5015204;28;20041;-62
2021/04/06 03:33:45;;;;;;;21.80;3.35;;;;;;;-0.20;71.80;98985.84;5015972;28;20109;-61
2021/04/06 03:36:30;;;;;;;16.05;2.97;;;;;;;-0.12;71.41;98989.25;5014012;28;20041;-61
2021/04/06 03:38:57;;;;;;;17.48;3.38;;;;;;;-0.13;71.35;98986.78;5014172;28;20041;-62
2021/04/06 03:41:24;;;;;;;16.67;4.95;;;;;;;-0.14;71.20;98982.53;5015275;28;20055;-62
2021/04/06 03:43:49;;;;;;;13.00;2.72;;;;;;;-0.16;70.96;98992.41;5015112;28;20022;-61
2021/04/06 03:46:21;;;;;;;15.50;2.70;;;;;;;-0.11;70.51;98987.44;5013473;28;20120;-62
2021/04/06 03:48:47;;;;;;;12.88;2.17;;;;;;;0.04;69.71;98988.25;5015578;28;20034;-63
2021/04/06 03:51:26;;;;;;;11.50;2.47;;;;;;;0.07;69.72;98990.53;4997807;28;20038;-62
2021/04/06 03:53:52;;;;;;;16.30;3.28;;;;;;;0.09;69.91;99001.72;4998185;28;20061;-61
2021/04/06 03:56:17;;;;;;;9.48;2.85;;;;;;;0.10;70.42;99003.38;5012658;28;20041;-61
2021/04/06 03:58:53;;;;;;;12.85;2.70;;;;;;;0.07;70.40;98992.34;5015844;28;20033;-61
2021/04/06 04:01:19;;;;;;;18.52;3.20;;;;;;;0.07;70.76;98987.91;5013657;28;20046;-61
2021/04/06 04:03:44;;;;;;;10.93;2.63;;;;;;;0.03;70.88;98997.19;5014813;28;20029;-62
2021/04/06 04:06:10;;;;;;;15.57;3.03;;;;;;;0.02;71.10;98994.72;5015434;28;20494;-63
2021/04/06 04:08:36;;;;;;;17.17;3.35;;;;;;;-0.04;70.55;98998.88;4980881;28;20180;-61
2021/04/06 04:11:01;;;;;;;13.70;2.75;;;;;;;0.01;70.23;98993.09;5014269;28;20046;-61
2021/04/06 04:13:27;;;;;;;15.48;2.88;;;;;;;0.00;69.81;98992.28;5015418;28;20033;-61
2021/04/06 04:15:53;;;;;;;7.55;2.53;;;;;;;0.06;70.00;98999.44;5013356;28;20049;-61
2021/04/06 04:18:18;;;;;;;15.98;2.45;;;;;;;0.04;69.85;98998.81;4997381;28;20033;-61
2021/04/06 04:20:43;;;;;;;8.88;2.70;;;;;;;0.00;70.47;99008.09;5014300;28;20045;-61
2021/04/06 04:23:09;;;;;;;9.45;3.05;;;;;;;0.09;70.15;99008.81;5013625;28;20032;-61
2021/04/06 04:25:34;;;;;;;15.40;2.40;;;;;;;0.10;70.58;99000.72;5013007;28;20050;-61
2021/04/06 04:28:00;;;;;;;8.98;2.63;;;;;;;0.03;71.09;98991.91;5014680;28;20026;-61
2021/04/06 04:30:35;;;;;;;12.35;2.75;;;;;;;0.04;70.93;98998.81;5014406;28;20042;-61
2021/04/06 04:33:02;;;;;;;11.02;2.55;;;;;;;0.02;70.74;98999.97;5013463;28;20029;-61
2021/04/06 04:35:28;;;;;;;15.70;3.30;;;;;;;0.11;70.39;99009.44;5014162;28;20042;-61
2021/04/06 04:37:54;;;;;;;14.40;2.38;;;;;;;0.04;70.90;99014.63;5014435;28;20037;-61
2021/04/06 04:40:19;;;;;;;13.10;2.90;;;;;;;0.11;71.13;99009.44;5013907;28;20030;-61
2021/04/06 04:42:45;;;;;;;13.23;2.90;;;;;;;0.07;72.28;99016.06;5013326;28;20026;-61
2021/04/06 04:45:11;;;;;;;9.82;2.75;;;;;;;-0.03;74.83;99022.41;5012660;28;20168;-61
2021/04/06 04:47:36;;;;;;;12.57;3.03;;;;;;;-0.22;77.21;99022.94;5014464;28;20030;-60
2021/04/06 04:50:03;;;;;;;12.48;3.35;;;;;;;-0.35;78.88;99025.31;5014031;28;20021;-61
2021/04/06 04:52:28;;;;;;;12.00;2.88;;;;;;;-0.33;80.30;99025.97;5013112;28;20369;-61
2021/04/06 04:54:54;;;;;;;8.63;3.10;;;;;;;-0.46;80.84;99023.94;5013467;28;20095;-61
2021/04/06 04:57:19;;;;;;;14.63;2.80;;;;;;;-0.50;82.02;99020.00;5013117;28;20578;-61
2021/04/06 04:59:45;;;;;;;14.25;2.53;;;;;;;-0.52;82.65;99022.84;5014417;28;20026;-60
2021/04/06 05:02:10;;;;;;;10.70;3.05;;;;;;;-0.66;83.50;99020.97;5013806;28;20392;-61
2021/04/06 05:04:36;;;;;;;14.70;3.33;;;;;;;-0.69;83.98;99016.84;5014029;28;20077;-61
2021/04/06 05:07:01;;;;;;;11.38;2.72;;;;;;;-0.77;83.93;99016.94;5013758;28;20046;-61
2021/04/06 05:09:27;;;;;;;10.68;3.25;;;;;;;-0.85;83.93;99014.31;5013883;28;20029;-61
2021/04/06 05:11:52;;;;;;;10.23;2.80;;;;;;;-0.67;79.86;99016.69;5013736;28;20053;-60
2021/04/06 05:14:17;;;;;;;8.23;2.47;;;;;;;-0.78;81.56;99007.38;5012475;28;20030;-61
2021/04/06 05:16:43;;;;;;;10.63;2.70;;;;;;;-0.77;81.88;99011.66;5013335;28;20439;-60
2021/04/06 05:19:08;;;;;;;9.27;3.00;;;;;;;-0.81;81.56;99010.38;5012764;28;20034;-61
2021/04/06 05:21:34;;;;;;;16.20;3.08;;;;;;;-0.91;81.36;99007.13;5013232;28;20492;-61
2021/04/06 05:23:59;;;;;;;8.70;2.65;;;;;;;-0.81;79.29;99014.81;5012540;28;20388;-61
2021/04/06 05:26:25;;;;;;;8.55;2.80;;;;;;;-0.69;78.14;99016.06;5013362;28;20493;-61
2021/04/06 05:28:50;;;;;;;8.75;2.33;;;;;;;-0.54;75.72;99016.91;5012317;28;20038;-61
2021/04/06 05:31:15;;;;;;;8.07;2.28;;;;;;;-0.38;74.72;99020.41;5013107;28;20378;-61
2021/04/06 05:33:41;;;;;;;10.55;2.28;;;;;;;-0.27;73.16;99020.81;5013436;28;20037;-61
2021/04/06 05:36:07;;;;;;;10.13;2.22;;;;;;;-0.25;72.94;99031.16;5013109;28;20149;-61
2021/04/06 05:38:32;;;;;;;17.75;3.05;;;;;;;-0.25;72.98;99029.38;5013460;28;20481;-61
2021/04/06 05:40:58;;;;;;;17.65;2.88;;;;;;;-0.29;73.33;99029.91;5011535;28;20152;-61
2021/04/06 05:43:24;;;;;;;15.25;2.83;;;;;;;-0.29;73.03;99030.72;5013416;28;20029;-61
2021/04/06 05:45:52;;;;;;;18.30;3.63;;;;;;;-0.14;72.26;99032.59;5013016;28;20050;-62
2021/04/06 05:48:17;;;;;;;15.20;3.00;;;;;;;0.09;71.78;99033.34;5013498;28;20036;-62
2021/04/06 05:50:46;;;;;;;6.82;2.75;;;;;;;0.34;70.58;99031.28;4995610;28;20033;-62
2021/04/06 05:53:12;;;;;;;15.38;2.50;;;;;;;0.61;69.84;99031.66;5013295;28;20384;-61
2021/04/06 05:55:37;;;;;;;18.95;3.28;;;;;;;0.89;68.28;99037.06;5011748;28;20100;-61
2021/04/06 05:58:03;;;;;;;13.73;3.60;;;;;;;1.10;68.18;99030.19;4996394;28;20033;-61
2021/04/06 06:00:28;;;;;;;13.18;3.42;;;;;;;1.64;65.43;99037.66;5012129;28;20400;-61
2021/04/06 06:02:53;;;;;;;11.70;2.58;;;;;;;4.20;55.82;99035.66;5012113;28;20033;-61
2021/04/06 06:05:19;;;;;;;22.00;2.83;;;;;;;4.50;54.16;99044.78;5011832;28;20037;-62
2021/04/06 06:07:44;;;;;;;13.40;2.38;;;;;;;5.48;50.03;99030.50;5012884;28;20030;-61
2021/04/06 06:10:37;;;;;;;18.00;3.15;;;;;;;6.57;46.37;99036.38;5012541;28;20400;-62
2021/04/06 06:13:34;;;;;;;10.48;2.53;;;;;;;5.77;49.38;99033.59;5010500;28;20495;-61
2021/04/06 06:16:13;;;;;;;18.20;2.47;;;;;;;6.34;46.36;99028.22;4995935;28;20053;-61
2021/04/06 06:18:53;;;;;;;9.02;2.58;;;;;;;4.40;52.72;99033.78;5013239;28;20075;-61
2021/04/06 06:21:19;;;;;;;16.25;2.78;;;;;;;3.64;55.11;99023.59;5012624;28;20042;-61
2021/04/06 06:23:44;;;;;;;11.73;2.90;;;;;;;3.15;57.45;99027.41;5013059;28;20396;-62
2021/04/06 06:26:10;;;;;;;13.02;2.72;;;;;;;3.55;56.56;99030.16;5011210;28;20396;-62
2021/04/06 06:28:36;;;;;;;8.50;2.90;;;;;;;4.16;54.21;99043.19;5013272;28;20034;-62
2021/04/06 06:31:05;;;;;;;9.15;2.83;;;;;;;3.01;57.70;99037.13;4995108;28;20516;-62
2021/04/06 06:33:31;;;;;;;10.02;2.58;;;;;;;2.64;59.38;99038.38;5011629;28;20465;-62
2021/04/06 06:36:24;;;;;;;18.98;3.30;;;;;;;3.28;58.91;99040.69;5012569;28;20038;-62
2021/04/06 06:38:49;;;;;;;6.38;1.95;;;;;;;2.55;59.39;99050.97;5008921;28;20042;-62
2021/04/06 06:41:17;;;;;;;8.32;2.50;;;;;;;2.33;60.85;99052.84;5012650;28;20038;-62
2021/04/06 06:43:53;;;;;;;9.73;2.40;;;;;;;2.33;61.11;99048.38;5011658;28;20033;-62
2021/04/06 06:46:20;;;;;;;12.10;2.58;;;;;;;1.58;63.15;99049.00;4994993;28;20030;-62
2021/04/06 06:49:02;;;;;;;8.63;2.45;;;;;;;1.60;64.76;99049.59;5012864;28;20080;-63
2021/04/06 06:51:32;;;;;;;10.95;2.53;;;;;;;1.53;64.73;99051.38;5011121;28;20096;-62
2021/04/06 06:53:58;;;;;;;6.68;2.35;;;;;;;3.37;60.28;99044.78;5013004;28;20030;-62
2021/04/06 06:56:40;;;;;;;6.60;2.00;;;;;;;2.36;63.15;99042.69;4996229;28;20573;-62
2021/04/06 06:59:06;;;;;;;10.30;2.20;;;;;;;1.82;62.40;99051.25;4993305;28;20031;-63
2021/04/06 07:01:33;;;;;;;10.45;2.45;;;;;;;1.84;64.00;99049.22;4992589;28;20455;-62
2021/04/06 07:04:02;;;;;;;8.95;2.10;;;;;;;2.83;58.67;99053.53;4993271;28;20035;-62
2021/04/06 07:06:27;;;;;;;10.68;2.55;;;;;;;1.95;61.05;99039.97;4992807;28;20129;-62
2021/04/06 07:08:52;;;;;;;4.55;2.25;;;;;;;3.53;57.15;99048.06;4993085;28;20417;-62
2021/04/06 07:11:18;;;;;;;6.80;2.20;;;;;;;3.27;62.26;99049.66;4991107;28;20046;-62
2021/04/06 07:13:44;;;;;;;11.27;2.05;;;;;;;3.89;56.81;99042.38;4993188;28;20469;-63
2021/04/06 07:16:09;;;;;;;11.57;2.72;;;;;;;3.34;59.26;99044.34;5007758;28;20046;-62
2021/04/06 07:18:35;;;;;;;7.95;1.90;;;;;;;2.61;61.92;99044.88;4992166;28;20389;-63
2021/04/06 07:21:05;;;;;;;6.70;2.10;;;;;;;2.46;61.56;99038.88;5002588;28;20046;-63
2021/04/06 07:24:12;;;;;;;8.38;2.30;;;;;;;2.64;64.13;99044.47;5016582;28;20112;-63
2021/04/06 07:26:37;;;;;;;12.63;2.03;;;;;;;2.51;59.92;99044.41;5015249;28;20085;-63
2021/04/06 07:29:04;;;;;;;7.43;2.22;;;;;;;2.16;63.21;99042.56;5015917;28;20061;-62
2021/04/06 07:31:30;;;;;;;7.95;2.20;;;;;;;2.44;62.49;99046.19;4981829;28;20485;-62
2021/04/06 07:33:55;;;;;;;8.45;2.63;;;;;;;2.79;59.16;99042.50;4998196;28;20041;-62
2021/04/06 07:36:22;;;;;;;7.07;2.72;;;;;;;2.43;59.44;99037.44;5014182;28;20081;-62
2021/04/06 07:38:56;;;;;;;5.15;2.30;;;;;;;2.98;58.75;99040.16;5015830;28;20373;-62
2021/04/06 07:41:23;;;;;;;10.38;2.20;;;;;;;2.38;60.43;99045.97;5014281;28;20044;-63
2021/04/06 07:43:56;;;;;;;12.25;3.20;;;;;;;2.45;59.79;99045.22;5014585;28;20084;-62
2021/04/06 07:46:33;;;;;;;5.78;2.05;;;;;;;2.19;60.58;99049.28;5013943;28;20038;-62
2021/04/06 07:48:59;;;;;;;5.03;2.03;;;;;;;2.05;61.23;99052.88;5015676;28;20061;-62
2021/04/06 07:51:26;;;;;;;6.47;2.72;;;;;;;1.81;60.93;99054.88;5013604;28;20433;-61
2021/04/06 07:54:00;;;;;;;8.57;2.83;;;;;;;2.05;60.96;99052.88;5015501;28;20033;-62
2021/04/06 07:56:45;;;;;;;15.95;5.80;;;;;;;2.15;63.05;99050.69;5013786;28;20030;-62
2021/04/06 07:59:20;;;;;;;22.25;8.82;;;;;;;2.14;61.07;99054.34;5014986;28;20038;-62
2021/04/06 08:01:54;;;;;;;15.10;5.18;;;;;;;1.98;59.87;99059.91;5013575;28;20046;-62
2021/04/06 08:04:26;;;;;;;18.63;7.72;;;;;;;2.12;59.26;99048.41;5015201;28;20148;-62
2021/04/06 08:06:56;;;;;;;17.85;5.65;;;;;;;2.52;59.26;99052.16;4981915;28;20038;-62
2021/04/06 08:12:18;;;;;;;10.13;3.33;;;;;;;2.29;59.23;99062.97;5014709;28;20456;-62
2021/04/06 08:14:50;;;;;;;10.18;3.38;;;;;;;2.22;58.44;99064.78;5015026;28;20069;-62
2021/04/06 08:20:11;;;;;;;9.32;2.22;;;;;;;2.00;58.14;99068.44;5015338;28;20435;-64
2021/04/06 08:22:43;;;;;;;10.90;3.13;;;;;;;2.17;58.41;99059.22;4993047;28;20050;-63
2021/04/06 08:25:23;;;;;;;13.52;4.13;;;;;;;2.06;60.01;99059.78;4993598;28;20038;-62
2021/04/06 08:27:52;;;;;;;22.05;5.47;;;;;;;4.09;52.78;99064.44;4995358;28;20038;-62
2021/04/06 08:30:26;;;;;;;11.38;3.35;;;;;;;3.26;54.96;99058.59;4993575;28;20029;-62
2021/04/06 08:32:58;;;;;;;8.48;2.45;;;;;;;3.09;53.93;99052.81;4995084;28;20046;-62
2021/04/06 08:35:55;;;;;;;10.55;3.80;;;;;;;2.95;55.37;99059.91;4994658;28;20046;-62
2021/04/06 08:38:23;;;;;;;14.15;2.60;;;;;;;2.81;55.67;99063.50;4995254;28;20043;-62
2021/04/06 08:41:00;;;;;;;11.60;2.90;;;;;;;3.35;55.14;99062.72;4994984;28;20046;-62
2021/04/06 08:43:26;;;;;;;14.43;3.67;;;;;;;3.98;52.71;99073.00;4995373;28;20469;-62
2021/04/06 08:45:59;;;;;;;7.22;2.78;;;;;;;3.43;52.14;99064.34;4993362;28;20039;-62
2021/04/06 08:48:46;;;;;;;10.00;3.17;;;;;;;3.66;50.64;99064.00;4993712;28;20484;-61
2021/04/06 08:51:39;;;;;;;11.30;2.78;;;;;;;3.84;50.66;99061.59;4994284;28;20057;-62
2021/04/06 08:54:06;;;;;;;10.25;2.40;;;;;;;3.97;51.07;99068.72;4988182;28;20062;-61
2021/04/06 08:56:34;;;;;;;15.13;3.28;;;;;;;3.96;52.51;99069.72;4994191;28;20227;-62
2021/04/06 08:59:32;;;;;;;10.35;2.55;;;;;;;3.75;51.84;99064.63;4994813;28;20027;-61
2021/04/06 09:02:00;;;;;;;9.00;2.50;;;;;;;3.40;51.93;99057.63;4994242;28;20038;-61
2021/04/06 09:04:33;;;;;;;14.57;3.05;;;;;;;3.16;52.30;99064.25;4994493;28;20042;-62
2021/04/06 09:06:58;;;;;;;8.68;2.47;;;;;;;3.08;51.56;99072.38;4994078;28;20042;-61
2021/04/06 09:09:28;;;;;;;11.18;2.00;;;;;;;3.16;50.50;99063.44;4994329;28;20037;-61
2021/04/06 09:11:55;;;;;;;12.57;4.80;;;;;;;4.01;50.13;99061.97;4993837;28;20072;-61
2021/04/06 09:14:24;;;;;;;9.85;2.50;;;;;;;3.91;49.77;99066.88;4994666;28;20026;-61
2021/04/06 09:16:51;;;;;;;9.43;2.10;;;;;;;3.61;50.31;99061.94;4994273;28;20142;-62
2021/04/06 09:19:16;;;;;;;10.73;2.63;;;;;;;3.53;51.09;99062.13;4994824;28;20030;-62
2021/04/06 09:21:44;;;;;;;25.15;9.00;;;;;;;4.70;48.81;99068.66;5007816;28;20456;-61
2021/04/06 09:24:11;;;;;;;14.48;8.48;;;;;;;6.56;43.85;99068.56;4996585;28;20026;-62
2021/04/06 09:26:36;;;;;;;13.00;5.72;;;;;;;6.85;41.98;99069.69;5012373;28;20420;-61
2021/04/06 09:29:15;;;;;;;9.93;4.70;;;;;;;7.28;40.63;99066.09;5012539;28;20073;-61
2021/04/06 09:31:50;;;;;;;8.93;3.33;;;;;;;7.45;39.97;99060.97;5012725;28;20053;-61
2021/04/06 09:34:17;;;;;;;10.98;5.22;;;;;;;7.70;38.18;99050.97;5013800;28;20050;-61
2021/04/06 09:36:50;;;;;;;17.05;6.15;;;;;;;6.52;42.26;99056.72;5011846;28;20044;-61
2021/04/06 09:39:16;;;;;;;14.00;3.90;;;;;;;5.08;43.79;99045.84;5013540;28;20026;-61
2021/04/06 09:41:41;;;;;;;17.55;4.80;;;;;;;5.13;45.00;99052.16;5011821;28;20045;-61
2021/04/06 09:44:10;;;;;;;16.92;5.30;;;;;;;5.35;46.13;99044.69;5012949;28;20068;-61
2021/04/06 09:46:49;;;;;;;9.90;3.85;;;;;;;4.64;48.03;99055.38;5011858;28;20042;-61
2021/04/06 09:49:15;;;;;;;17.38;6.10;;;;;;;4.20;51.78;99062.19;5014035;28;20032;-62
2021/04/06 09:51:51;;;;;;;12.05;3.65;;;;;;;4.31;54.00;99057.06;5012935;28;20128;-62
2021/04/06 09:54:30;;;;;;;7.97;2.45;;;;;;;4.04;55.15;99058.94;5013490;28;20022;-61
2021/04/06 09:56:57;;;;;;;10.30;3.10;;;;;;;3.47;58.41;99047.06;5013031;28;20034;-62
2021/04/06 09:59:22;;;;;;;11.93;2.22;;;;;;;3.48;59.36;99051.31;5012926;28;20075;-62
2021/04/06 10:01:49;;;;;;;9.63;4.60;;;;;;;3.96;58.77;99059.13;5011875;28;20045;-62
2021/04/06 10:04:14;;;;;;;7.38;2.42;;;;;;;3.09;62.81;99063.41;5011884;28;20203;-61
2021/04/06 10:06:44;;;;;;;15.35;3.00;;;;;;;2.77;62.52;99065.75;4995417;28;20492;-62
2021/04/06 10:09:18;;;;;;;9.20;2.90;;;;;;;2.35;64.71;99072.81;5013274;28;20026;-62
2021/04/06 10:11:44;;;;;;;7.63;2.20;;;;;;;1.42;73.10;99072.00;5011569;28;20407;-61
2021/04/06 10:14:09;;;;;;;4.03;1.92;;;;;;;1.05;76.87;99070.38;5013361;28;20038;-61
2021/04/06 10:16:35;;;;;;;8.10;2.40;;;;;;;1.40;75.64;99065.25;5011545;28;20045;-62
2021/04/06 10:19:01;;;;;;;12.38;5.03;;;;;;;2.21;73.98;99060.50;5013179;28;20029;-61
2021/04/06 10:21:27;;;;;;;7.55;4.50;;;;;;;4.38;65.15;99062.38;4978768;28;20038;-62
2021/04/06 10:24:06;;;;;;;8.95;4.45;;;;;;;5.54;61.44;99058.06;5013080;28;20068;-62
2021/04/06 10:26:31;;;;;;;6.28;2.42;;;;;;;5.80;60.21;99049.91;5011440;28;20038;-62
2021/04/06 10:29:04;;;;;;;4.95;2.30;;;;;;;6.81;56.42;99040.00;5012979;28;20038;-62
2021/04/06 10:31:51;;;;;;;8.48;2.47;;;;;;;6.97;51.95;99030.63;5012605;28;20069;-62
2021/04/06 10:34:17;;;;;;;10.93;5.20;;;;;;;7.40;48.33;99026.16;5012870;28;20037;-62
2021/04/06 10:36:55;;;;;;;6.35;2.30;;;;;;;6.84;48.47;99012.94;5012914;28;20101;-62
2021/04/06 10:39:36;;;;;;;7.80;2.95;;;;;;;5.08;58.87;99032.56;5013198;28;20072;-62
2021/04/06 10:42:02;;;;;;;8.68;3.67;;;;;;;3.85;64.86;99033.22;5012557;28;20057;-62
2021/04/06 10:44:28;;;;;;;10.85;6.72;;;;;;;5.80;60.41;99033.97;5012920;28;20544;-62
2021/04/06 10:46:53;;;;;;;7.72;4.68;;;;;;;6.48;56.57;99029.72;5011256;28;20038;-62
2021/04/06 10:49:18;;;;;;;23.27;11.20;;;;;;;7.40;51.94;99016.31;5012825;28;20125;-62
2021/04/06 10:51:48;;;;;;;6.65;2.65;;;;;;;7.29;49.48;99009.09;5012364;28;20045;-62
2021/04/06 10:54:15;;;;;;;7.68;2.65;;;;;;;7.41;46.04;98999.25;5011904;28;20022;-62
2021/04/06 10:56:55;;;;;;;9.52;2.92;;;;;;;8.04;42.28;98997.06;5015964;28;20488;-62
2021/04/06 10:59:27;;;;;;;4.88;2.17;;;;;;;6.79;44.67;98988.00;5016582;28;20120;-62
2021/04/06 11:01:53;;;;;;;5.18;2.08;;;;;;;6.66;43.42;98983.63;5016117;28;20048;-62
2021/04/06 11:04:26;;;;;;;5.45;2.10;;;;;;;6.11;43.23;98980.94;5015188;28;20026;-62
2021/04/06 11:07:02;;;;;;;5.68;1.90;;;;;;;6.74;41.36;98974.53;5014843;28;20092;-62
2021/04/06 11:09:39;;;;;;;4.25;1.95;;;;;;;6.11;40.87;98976.44;5016117;28;20034;-61
2021/04/06 11:12:09;;;;;;;4.53;2.10;;;;;;;6.38;40.68;98976.16;5015907;28;20558;-61
2021/04/06 11:14:35;;;;;;;6.97;2.95;;;;;;;7.70;38.81;98972.78;5016255;28;20037;-61
2021/04/06 11:17:04;;;;;;;4.45;1.88;;;;;;;7.46;38.49;98972.75;5015850;28;20034;-61
2021/04/06 11:19:32;;;;;;;6.20;2.60;;;;;;;7.21;37.49;98958.75;5016197;28;20029;-61
2021/04/06 11:22:02;;;;;;;5.03;2.08;;;;;;;7.53;37.90;98960.09;5014441;28;20267;-61
2021/04/06 11:24:28;;;;;;;3.58;2.17;;;;;;;7.79;39.23;98950.06;5016323;28;20029;-61
2021/04/06 11:26:54;;;;;;;3.83;2.03;;;;;;;7.64;40.68;98947.84;5015682;28;20121;-61
2021/04/06 11:29:21;;;;;;;6.25;2.03;;;;;;;6.62;42.49;98946.00;5015849;28;20360;-61
2021/04/06 11:31:47;;;;;;;6.15;2.13;;;;;;;6.26;42.67;98939.66;5015289;28;20564;-61
2021/04/06 11:34:13;;;;;;;7.63;2.90;;;;;;;6.36;44.35;98954.28;5015831;28;20381;-63
2021/04/06 11:36:38;;;;;;;6.47;3.58;;;;;;;6.97;43.53;98940.03;5015364;28;20026;-62
2021/04/06 11:39:06;;;;;;;5.53;3.40;;;;;;;6.83;42.29;98957.22;5014868;28;20044;-61
2021/04/06 11:41:32;;;;;;;4.43;2.10;;;;;;;6.73;41.99;98947.09;5015460;28;20104;-61
2021/04/06 11:43:57;;;;;;;8.05;4.97;;;;;;;7.00;41.05;98942.22;5015781;28;20030;-61
2021/04/06 11:46:22;;;;;;;12.18;4.78;;;;;;;7.03;38.81;98939.09;5015274;28;20136;-61
2021/04/06 11:48:48;;;;;;;2.92;1.15;;;;;;;6.53;42.83;98934.00;5015725;28;20022;-61